JE7ZDC Weather Reports


Display with metric or nautical units.
time (UTC)temp
F
wind
direction
speed
MPH
gust
MPH
rain 1hr
in
rain 24hr
in
rain mn
in
humidity
%
barometer
mb
20181120211713 37 205 0.0 2.0 0.00 0.00 0.00 86 1022.0
20181120210126 38 266 0.0 6.0 0.00 0.00 0.00 85 1021.9
20181120204634 37 237 1.0 4.0 0.00 0.00 0.00 85 1022.0
20181120203148 36 264 1.0 4.0 0.00 0.00 0.00 85 1021.8
20181120201617 36 240 0.0 2.0 0.00 0.00 0.00 83 1022.1
20181120200118 36 154 0.0 2.0 0.00 0.00 0.00 84 1022.0
20181120194654 35 277 1.0 4.0 0.00 0.00 0.00 84 1022.1
20181120193126 35 94 0.0 2.0 0.00 0.00 0.00 83 1022.1
20181120191809 35 186 0.0 1.0 0.00 0.00 0.00 82 1022.3
20181120190108 35 150 1.0 4.0 0.00 0.00 0.00 81 1022.5
20181120184613 35 98 0.0 2.0 0.00 0.00 0.00 81 1022.4
20181120183131 35 119 0.0 2.0 0.00 0.00 0.00 78 1022.6
20181120181640 35 96 0.0 1.0 0.00 0.00 0.00 77 1022.5
20181120180111 33 207 0.0 2.0 0.00 0.00 0.00 80 1022.7
20181120174533 34 94 0.0 1.0 0.00 0.00 0.00 81 1022.8
20181120173106 34 240 0.0 1.0 0.00 0.00 0.00 80 1022.8
20181120171556 35 94 0.0 2.0 0.00 0.00 0.00 79 1022.8
20181120170249 35 151 0.0 1.0 0.00 0.00 0.00 79 1022.9
20181120164617 34 257 0.0 1.0 0.00 0.00 0.00 81 1022.9
20181120163100 35 116 0.0 0.0 0.00 0.00 0.00 80 1022.7
20181120161526 34 119 0.0 1.0 0.00 0.00 0.00 81 1022.7
20181120160100 35 102 0.0 1.0 0.00 0.00 0.00 82 1022.3
20181120154550 35 146 0.0 0.0 0.00 0.00 0.00 82 1022.5
20181120153024 35 159 0.0 0.0 0.00 0.00 0.00 83 1022.5
20181120151545 36 159 0.0 0.0 0.00 0.00 0.00 83 1022.4
20181120150025 36 139 0.0 0.0 0.00 0.00 0.00 83 1022.4
20181120144526 36 139 0.0 0.0 0.00 0.00 0.00 84 1022.5
20181120143013 36 139 0.0 1.0 0.00 0.00 0.00 85 1022.5
20181120141509 36 108 0.0 1.0 0.00 0.00 0.00 86 1022.4
20181120140030 37 108 0.0 1.0 0.00 0.00 0.00 86 1022.6
20181120134511 37 106 0.0 1.0 0.00 0.00 0.00 86 1022.4
20181120133003 38 101 0.0 1.0 0.00 0.00 0.00 86 1022.7
20181120131618 38 239 0.0 0.0 0.00 0.00 0.00 87 1022.9
20181120130133 39 240 0.0 0.0 0.00 0.00 0.00 87 1022.8
20181120124638 39 247 0.0 1.0 0.00 0.00 0.00 87 1022.6
20181120123115 40 138 0.0 1.0 0.00 0.00 0.00 86 1022.5
20181120121643 41 225 0.0 0.0 0.00 0.00 0.00 84 1022.6
20181120120113 42 260 0.0 0.0 0.00 0.00 0.00 80 1022.3
20181120114652 43 265 0.0 0.0 0.00 0.00 0.00 79 1022.4
20181120113129 43 328 0.0 1.0 0.00 0.00 0.00 78 1022.4
20181120111604 44 23 0.0 4.0 0.00 0.00 0.00 78 1022.4
20181120110118 43 356 0.0 1.0 0.00 0.00 0.00 82 1022.6
20181120104650 43 239 0.0 0.0 0.00 0.00 0.00 80 1022.5
20181120103155 43 240 0.0 0.0 0.00 0.00 0.00 78 1022.2
20181120101559 43 240 0.0 0.0 0.00 0.00 0.00 77 1022.1
20181120100150 44 240 0.0 0.0 0.00 0.00 0.00 74 1021.8
20181120094630 44 240 0.0 0.0 0.00 0.00 0.00 75 1021.6
20181120093152 44 240 0.0 3.0 0.00 0.00 0.00 73 1021.4
20181120091612 44 231 0.0 4.0 0.00 0.00 0.00 73 1021.5
20181120090051 44 358 2.0 7.0 0.00 0.00 0.00 73 1021.1
20181120084625 44 324 1.0 7.0 0.00 0.00 0.00 74 1021.1
20181120083050 44 11 2.0 8.0 0.00 0.00 0.00 73 1020.8
20181120081622 45 19 2.0 11.0 0.00 0.00 0.00 71 1020.8
20181120080042 45 302 1.0 6.0 0.00 0.00 0.00 70 1020.6
20181120074601 45 304 3.0 14.0 0.00 0.00 0.00 70 1020.3
20181120073054 45 287 2.0 9.0 0.00 0.00 0.00 71 1020.1
20181120071554 44 323 5.0 19.0 0.00 0.00 0.00 73 1020.1
20181120070047 46 309 6.0 17.0 0.00 0.00 0.00 70 1019.8
20181120064523 47 335 9.0 18.0 0.00 0.00 0.00 67 1019.5
20181120063036 49 245 6.0 13.0 0.00 0.00 0.00 64 1019.2
20181120061604 50 309 4.0 11.0 0.00 0.00 0.00 59 1018.5
20181120060027 51 274 0.0 1.0 0.00 0.00 0.00 60 1018.3
20181120054519 52 264 0.0 4.0 0.00 0.00 0.00 56 1017.8
20181120053042 53 226 0.0 3.0 0.00 0.00 0.00 55 1017.6
20181120051531 54 154 0.0 2.0 0.00 0.00 0.00 53 1017.5
20181120050016 53 101 0.0 3.0 0.00 0.00 0.00 53 1017.4
20181120044525 51 98 0.0 2.0 0.00 0.00 0.00 55 1017.5
20181120043023 51 102 0.0 1.0 0.00 0.00 0.00 54 1017.6
20181120041520 51 94 0.0 1.0 0.00 0.00 0.00 54 1017.7
20181120040017 52 167 0.0 2.0 0.00 0.00 0.00 51 1017.7
20181120034503 52 222 0.0 3.0 0.00 0.00 0.00 52 1017.7
20181120033003 51 211 0.0 2.0 0.00 0.00 0.00 51 1017.6
20181120031502 51 100 0.0 3.0 0.00 0.00 0.00 53 1017.7
20181120030003 50 264 2.0 10.0 0.00 0.00 0.00 50 1017.9
20181120024657 52 245 0.0 6.0 0.00 0.00 0.00 48 1017.9
20181120023225 52 253 1.0 4.0 0.00 0.00 0.00 50 1018.2
20181120021657 53 318 0.0 5.0 0.00 0.00 0.00 46 1018.2
20181120020104 52 247 1.0 5.0 0.00 0.00 0.00 50 1018.4
20181120014645 52 285 1.0 5.0 0.00 0.00 0.00 48 1018.4
20181120013117 51 264 0.0 1.0 0.00 0.00 0.00 51 1018.5
20181120011554 49 42 1.0 5.0 0.00 0.00 0.00 52 1018.6
20181120010136 49 349 3.0 7.0 0.00 0.00 0.00 52 1018.8
20181120004645 48 300 2.0 9.0 0.00 0.00 0.00 53 1019.0
20181120003130 48 46 1.0 7.0 0.00 0.00 0.00 55 1019.1
20181120001550 47 42 2.0 9.0 0.00 0.00 0.00 56 1019.1
20181120000106 47 332 1.0 6.0 0.00 0.00 0.00 57 1019.3
20181119234544 46 63 0.0 5.0 0.00 0.00 0.00 57 1019.5
20181119233040 46 16 0.0 6.0 0.00 0.00 0.00 60 1019.5
20181119231616 45 30 2.0 7.0 0.00 0.00 0.00 62 1019.5
20181119230113 44 50 0.0 6.0 0.00 0.00 0.00 64 1019.5
20181119224544 43 65 0.0 2.0 0.00 0.00 0.00 65 1019.6
20181119223117 42 79 0.0 2.0 0.00 0.00 0.00 68 1019.8
20181119221550 42 5 0.0 4.0 0.00 0.00 0.00 68 1019.5
20181119220055 41 358 1.0 3.0 0.00 0.00 0.00 69 1019.2
20181119214545 41 32 2.0 5.0 0.00 0.00 0.00 70 1018.9
20181119213022 41 11 1.0 5.0 0.00 0.00 0.00 70 1018.8